Aérodrome :
LOGIN :

S'inscrire | Disclaimer

   EN    FR    IT 

 










Légende :    VFR   VFR Marginal   IFR   IFR Intensif   IFR Très Intensif
Visi : 
Plafond : 
>= 8 km
>= 3000ft
5 à 8 km
1000 à 3000 ft
1500m à 5 km
500 à 1000 ft
800 à 1500m
200 à 500 ft
< 800m
< 200 ft
Symboles :   Orages  Brouillard  Fortes neiges  Fortes précipitations  Vent > 20 kt
SIGMETs :   Divers  Orages  Givrage  Turbulence  Onde Orograph.  Cendres Volcan.







- Altitude de l'aérodrome : 1036 ft
- Code IATA : ERF


EDDE - Erfurt

METARs EXPIRÉS :
  • 241420Z 25013KT 220V280 9999 FEW040 22/11 Q1015 TEMPO 25015G25KT
  • 241350Z 28015G25KT 9999 FEW040 22/11 Q1015 TEMPO 27015G25KT
  • 241320Z 27017KT 9999 FEW040 22/11 Q1015 TEMPO 27015G25KT
  • 241250Z 27017KT 230V290 9999 FEW040 22/11 Q1015 TEMPO 27015G25KT
  • 241220Z 27016KT 240V300 9999 FEW040 22/11 Q1015 TEMPO 26015G25KT
  • 241150Z 27016KT 9999 FEW040 21/11 Q1015 TEMPO 26015G25KT

TAF TAF EDDE
Valide du 24 à 12h jusqu'au 25 à 12h UTC


241100Z 2412/2512 25015KT CAVOK
TEMPO 2412/2415 26015G25KT
BECMG 2417/2419 25007KT
BECMG 2506/2508 25015G25KT
Pas de NOTAMs connus pour ce terrain.



MET'MAP, la Météo Aéronautique d'un coup d'oeil ! - Copyright ORBIFLY Décembre 2007 - Disclaimer

ORBIFLY MET'MAP TEAM :

Programmation & Développement : Alexandra Zaïnal
Conception & Développement : Baudouin d'Aumeries
Co-Programmation & Développement : Marc-Olivier Méhu
Soutien technique & logistique : Manuel Goepfert

Contact : metmap@orbifly.com




SOURCES & CREDITS :

   NOAA